createdAt,value
2022-09-11T00:01:36.336Z,1.30
2022-09-11T00:04:04.879Z,1.20
2022-09-11T00:06:34.899Z,1.15
2022-09-11T00:09:05.943Z,1.00
2022-09-11T00:11:36.197Z,1.20
2022-09-11T00:14:04.363Z,1.10
2022-09-11T00:16:35.365Z,1.20
2022-09-11T00:19:09.513Z,1.15
2022-09-11T00:21:39.408Z,0.98
2022-09-11T00:24:10.089Z,1.40
2022-09-11T00:26:38.657Z,0.93
2022-09-11T00:29:06.755Z,1.00
2022-09-11T00:31:35.602Z,1.10
2022-09-11T00:34:03.748Z,1.13
2022-09-11T00:36:32.688Z,0.90
2022-09-11T00:39:02.190Z,0.93
2022-09-11T00:41:33.392Z,1.23
2022-09-11T00:44:03.877Z,0.90
2022-09-11T00:46:42.513Z,0.95
2022-09-11T00:49:18.988Z,0.70
2022-09-11T00:51:50.875Z,1.00
2022-09-11T00:54:27.149Z,1.20
2022-09-11T00:56:58.480Z,0.85
2022-09-11T00:59:28.715Z,1.00
2022-09-11T01:01:56.984Z,0.85
2022-09-11T01:04:25.573Z,1.02
2022-09-11T01:06:57.015Z,0.80
2022-09-11T01:09:28.693Z,1.00
2022-09-11T01:12:04.827Z,1.00
2022-09-11T01:14:42.927Z,0.80
2022-09-11T01:17:22.964Z,0.98
2022-09-11T01:20:12.699Z,1.00
2022-09-11T01:22:54.057Z,0.98
2022-09-11T01:25:28.621Z,0.73
2022-09-11T01:28:01.086Z,0.90
2022-09-11T01:30:33.531Z,1.00
2022-09-11T01:33:15.652Z,0.83
2022-09-11T01:35:54.539Z,0.85
2022-09-11T01:38:29.229Z,0.80
2022-09-11T01:41:01.653Z,1.10
2022-09-11T01:43:35.443Z,0.80
2022-09-11T01:46:08.187Z,0.85
2022-09-11T01:48:45.460Z,1.13
2022-09-11T01:51:21.743Z,1.10
2022-09-11T01:53:52.686Z,0.88
2022-09-11T01:56:24.759Z,1.10
2022-09-11T01:58:59.880Z,1.02
2022-09-11T02:01:32.395Z,1.00
2022-09-11T02:04:07.471Z,1.10
2022-09-11T02:06:40.846Z,0.90
2022-09-11T02:09:12.335Z,1.10
2022-09-11T02:11:43.694Z,0.90
2022-09-11T02:14:20.921Z,1.00
2022-09-11T02:16:53.473Z,1.17
2022-09-11T02:19:25.475Z,0.90
2022-09-11T02:21:53.816Z,0.88
2022-09-11T02:24:23.503Z,1.00
2022-09-11T02:26:55.491Z,1.05
2022-09-11T02:29:26.656Z,1.20
2022-09-11T02:31:56.176Z,1.00
2022-09-11T02:34:28.008Z,1.00
2022-09-11T02:37:08.541Z,0.75
2022-09-11T02:40:00.672Z,0.93
2022-09-11T02:42:40.248Z,1.08
2022-09-11T02:45:23.935Z,0.90
2022-09-11T02:48:02.564Z,1.00
2022-09-11T02:50:36.008Z,0.93
2022-09-11T02:53:11.472Z,0.90
2022-09-11T02:55:50.981Z,0.90
2022-09-11T02:58:23.438Z,1.00
2022-09-11T03:00:53.353Z,0.80
2022-09-11T03:03:21.854Z,0.80
2022-09-11T03:05:49.940Z,1.00
2022-09-11T03:08:18.771Z,1.10
2022-09-11T03:10:47.191Z,0.90
2022-09-11T03:13:15.368Z,0.90
2022-09-11T03:15:44.566Z,0.70
2022-09-11T03:18:15.854Z,1.00
2022-09-11T03:20:46.986Z,0.85
2022-09-11T03:23:15.435Z,0.98
2022-09-11T03:25:43.410Z,1.00
2022-09-11T03:28:11.654Z,0.90
2022-09-11T03:30:41.509Z,1.00
2022-09-11T03:33:10.168Z,1.20
2022-09-11T03:35:39.656Z,1.00
2022-09-11T03:38:07.715Z,0.90
2022-09-11T03:40:35.992Z,0.90
2022-09-11T03:43:04.051Z,1.00
2022-09-11T03:45:32.367Z,0.95
2022-09-11T03:48:01.213Z,0.90
2022-09-11T03:50:29.249Z,1.00
2022-09-11T03:52:59.503Z,0.88
2022-09-11T03:55:27.677Z,0.82
2022-09-11T03:57:55.863Z,0.93
2022-09-11T04:00:24.072Z,0.93
2022-09-11T04:02:52.203Z,1.00
2022-09-11T04:05:20.279Z,1.15
2022-09-11T04:07:49.306Z,0.88
2022-09-11T04:10:19.673Z,0.95
2022-09-11T04:12:47.923Z,0.75
2022-09-11T04:15:16.476Z,0.90
2022-09-11T04:17:44.591Z,0.98
2022-09-11T04:20:13.596Z,0.90
2022-09-11T04:22:42.084Z,0.80
2022-09-11T04:25:11.096Z,1.00
2022-09-11T04:27:40.832Z,0.80
2022-09-11T04:30:10.641Z,0.90
2022-09-11T04:32:38.658Z,0.60
2022-09-11T04:35:07.837Z,0.80
2022-09-11T04:37:36.534Z,0.60
2022-09-11T04:40:04.991Z,0.80
2022-09-11T04:42:33.012Z,0.90
2022-09-11T04:45:02.807Z,0.80
2022-09-11T04:47:31.089Z,0.70
2022-09-11T04:49:59.195Z,0.90
2022-09-11T04:52:27.924Z,0.85
2022-09-11T04:54:56.139Z,0.98
2022-09-11T04:57:24.236Z,0.75
2022-09-11T04:59:53.035Z,0.77
2022-09-11T05:02:22.922Z,0.85
2022-09-11T05:04:51.015Z,0.98
2022-09-11T05:07:19.337Z,0.80
2022-09-11T05:09:47.943Z,0.77
2022-09-11T05:12:15.969Z,1.00
2022-09-11T05:14:43.976Z,0.75
2022-09-11T05:17:13.426Z,1.00
2022-09-11T05:19:43.312Z,0.80
2022-09-11T05:22:11.378Z,0.90
2022-09-11T05:24:40.462Z,0.90
2022-09-11T05:27:09.702Z,0.80
2022-09-11T05:29:38.977Z,1.10
2022-09-11T05:32:07.039Z,1.00
2022-09-11T05:34:35.488Z,0.95
2022-09-11T05:37:05.625Z,1.00
2022-09-11T05:39:33.828Z,0.90
2022-09-11T05:42:02.134Z,0.93
2022-09-11T05:44:31.016Z,1.20
2022-09-11T05:46:59.561Z,1.05
2022-09-11T05:49:28.030Z,1.13
2022-09-11T05:52:02.475Z,1.05
2022-09-11T05:54:32.668Z,0.90
2022-09-11T05:57:05.730Z,0.82
2022-09-11T05:59:36.631Z,1.08
2022-09-11T06:02:05.875Z,0.80
2022-09-11T06:04:34.237Z,0.90
2022-09-11T06:07:02.366Z,1.13
2022-09-11T06:09:31.772Z,0.93
2022-09-11T06:12:00.928Z,1.00
2022-09-11T06:14:29.261Z,0.68
2022-09-11T06:16:57.727Z,0.88
2022-09-11T06:19:26.079Z,0.85
2022-09-11T06:21:54.296Z,0.80
2022-09-11T06:24:22.385Z,0.93
2022-09-11T06:26:51.954Z,1.00
2022-09-11T06:29:19.992Z,0.70
2022-09-11T06:31:51.240Z,0.63
2022-09-11T06:34:20.194Z,0.80
2022-09-11T06:36:51.910Z,0.80
2022-09-11T06:39:22.807Z,0.90
2022-09-11T06:41:53.988Z,0.77
2022-09-11T06:44:22.480Z,1.00
2022-09-11T06:46:50.672Z,0.90
2022-09-11T06:49:19.647Z,0.88
2022-09-11T06:51:47.951Z,0.80
2022-09-11T06:54:16.199Z,0.90
2022-09-11T06:56:45.235Z,0.73
2022-09-11T06:59:15.920Z,1.08
2022-09-11T07:01:44.560Z,0.98
2022-09-11T07:04:12.652Z,1.05
2022-09-11T07:06:40.747Z,1.02
2022-09-11T07:09:10.736Z,1.05
2022-09-11T07:11:43.772Z,1.02
2022-09-11T07:14:12.107Z,0.90
2022-09-11T07:16:41.610Z,0.90
2022-09-11T07:19:10.553Z,1.23
2022-09-11T07:21:38.667Z,0.90
2022-09-11T07:24:07.116Z,1.05
2022-09-11T07:26:36.404Z,0.90
2022-09-11T07:29:04.816Z,1.17
2022-09-11T07:31:34.780Z,0.98
2022-09-11T07:34:04.293Z,0.77
2022-09-11T07:36:34.636Z,1.05
2022-09-11T07:39:03.740Z,1.00
2022-09-11T07:41:31.974Z,0.93
2022-09-11T07:44:01.387Z,0.80
2022-09-11T07:46:31.292Z,0.85
2022-09-11T07:48:59.816Z,1.35
2022-09-11T07:51:29.627Z,1.10
2022-09-11T07:54:00.116Z,0.90
2022-09-11T07:56:29.417Z,1.20
2022-09-11T07:58:58.361Z,1.13
2022-09-11T08:01:29.744Z,1.10
2022-09-11T08:04:00.428Z,0.82
2022-09-11T08:06:31.487Z,1.30
2022-09-11T08:09:01.758Z,1.30
2022-09-11T08:11:31.773Z,1.20
2022-09-11T08:13:59.851Z,1.15
2022-09-11T08:16:29.882Z,1.02
2022-09-11T08:18:59.004Z,1.00
2022-09-11T08:21:27.732Z,0.98
2022-09-11T08:23:57.536Z,1.10
2022-09-11T08:26:27.329Z,1.20
2022-09-11T08:28:57.226Z,0.73
2022-09-11T08:31:27.445Z,1.13
2022-09-11T08:33:56.825Z,1.02
2022-09-11T08:36:25.766Z,1.10
2022-09-11T08:38:55.128Z,0.93
2022-09-11T08:41:33.494Z,1.20
2022-09-11T08:44:06.135Z,0.85
2022-09-11T08:46:39.059Z,1.33
2022-09-11T08:49:17.087Z,0.75
2022-09-11T08:51:47.176Z,1.00
2022-09-11T08:54:27.834Z,0.90
2022-09-11T08:57:16.979Z,0.80
2022-09-11T09:00:00.513Z,1.00
2022-09-11T09:05:21.498Z,1.10
2022-09-11T09:08:02.572Z,1.02
2022-09-11T09:10:44.427Z,1.20
2022-09-11T09:13:26.762Z,1.00
2022-09-11T09:16:02.588Z,1.15
2022-09-11T09:18:35.455Z,1.10
2022-09-11T09:21:08.355Z,1.02
2022-09-11T09:23:42.356Z,0.98
2022-09-11T09:26:18.931Z,1.00
2022-09-11T09:28:51.648Z,1.00
2022-09-11T09:31:22.898Z,1.10
2022-09-11T09:33:57.738Z,1.05
2022-09-11T09:36:31.418Z,1.00
2022-09-11T09:39:00.609Z,1.30
2022-09-11T09:41:51.323Z,1.00
2022-09-11T09:44:30.617Z,1.27
2022-09-11T09:46:59.463Z,1.20
2022-09-11T09:49:31.220Z,1.08
2022-09-11T09:52:04.482Z,1.08
2022-09-11T09:54:36.526Z,0.90
2022-09-11T09:57:07.774Z,1.02
2022-09-11T09:59:43.034Z,1.00
2022-09-11T10:02:12.227Z,1.00
2022-09-11T10:04:40.733Z,0.98
2022-09-11T10:07:11.598Z,0.93
2022-09-11T10:09:48.297Z,0.95
2022-09-11T10:12:19.424Z,1.27
2022-09-11T10:14:56.632Z,1.00
2022-09-11T10:17:32.352Z,0.90
2022-09-11T10:20:21.950Z,0.75
2022-09-11T10:22:51.279Z,0.73
2022-09-11T10:25:22.493Z,0.80
2022-09-11T10:28:01.821Z,1.00
2022-09-11T10:30:34.969Z,0.88
2022-09-11T10:35:36.455Z,0.77
2022-09-11T10:38:18.281Z,0.98
2022-09-11T10:41:08.248Z,1.08
2022-09-11T10:43:48.379Z,0.90
2022-09-11T10:46:39.713Z,0.90
2022-09-11T10:49:18.737Z,0.90
2022-09-11T10:52:03.329Z,1.17
2022-09-11T10:54:55.316Z,0.80
2022-09-11T10:57:28.859Z,0.90
2022-09-11T11:00:03.721Z,1.10
2022-09-11T11:02:35.471Z,0.90
2022-09-11T11:05:08.127Z,1.00
2022-09-11T11:08:06.890Z,1.05
2022-09-11T11:10:56.574Z,1.42
2022-09-11T11:13:39.856Z,1.17
2022-09-11T11:16:15.613Z,1.10
2022-09-11T11:19:07.975Z,1.02
2022-09-11T11:21:52.221Z,1.10
2022-09-11T11:24:38.021Z,1.02
2022-09-11T11:27:34.495Z,1.10
2022-09-11T11:30:11.134Z,0.90
2022-09-11T11:33:05.924Z,1.15
2022-09-11T11:35:44.793Z,1.13
2022-09-11T11:38:20.163Z,1.00
2022-09-11T11:40:53.394Z,1.20
2022-09-11T11:43:27.460Z,1.10
2022-09-11T11:46:02.288Z,1.05
2022-09-11T11:48:38.601Z,1.33
2022-09-11T11:51:13.779Z,1.08
2022-09-11T11:53:49.807Z,1.30
2022-09-11T11:56:28.841Z,1.40
2022-09-11T11:59:03.335Z,1.33
2022-09-11T12:01:40.065Z,1.40
2022-09-11T12:04:20.695Z,1.08
2022-09-11T12:06:51.628Z,1.30
2022-09-11T12:09:20.037Z,1.15
2022-09-11T12:11:51.338Z,1.20
2022-09-11T12:14:29.102Z,0.77
2022-09-11T12:16:58.094Z,1.20
2022-09-11T12:19:26.678Z,1.15
2022-09-11T12:22:33.561Z,0.90
2022-09-11T12:25:01.581Z,0.88
2022-09-11T12:27:51.886Z,0.85
2022-09-11T12:30:26.607Z,1.02
2022-09-11T12:32:56.184Z,0.77
2022-09-11T12:35:32.512Z,1.23
2022-09-11T12:38:17.835Z,0.90
2022-09-11T12:40:53.538Z,1.00
2022-09-11T12:43:49.091Z,0.60
2022-09-11T12:46:53.055Z,1.02
2022-09-11T12:49:23.809Z,0.52
2022-09-11T12:51:54.292Z,0.60
2022-09-11T12:54:27.444Z,0.80
2022-09-11T12:59:33.913Z,0.60
2022-09-11T13:02:07.413Z,1.20
2022-09-11T13:04:36.118Z,0.77
2022-09-11T13:07:07.249Z,1.00
2022-09-11T13:09:41.189Z,0.65
2022-09-11T13:12:46.825Z,1.00
2022-09-11T13:15:37.306Z,1.00
2022-09-11T13:18:31.440Z,1.20
2022-09-11T13:21:18.357Z,1.00
2022-09-11T13:23:48.112Z,0.90
2022-09-11T13:26:26.214Z,0.73
2022-09-11T13:28:58.175Z,0.95
2022-09-11T13:31:33.824Z,1.00
2022-09-11T13:34:04.754Z,0.90
2022-09-11T13:36:38.116Z,0.80
2022-09-11T13:39:08.785Z,0.73
2022-09-11T13:41:43.790Z,0.63
2022-09-11T13:44:31.516Z,0.75
2022-09-11T13:47:00.543Z,0.60
2022-09-11T13:49:36.357Z,0.80
2022-09-11T13:52:07.553Z,0.55
2022-09-11T13:54:38.867Z,0.60
2022-09-11T13:57:14.692Z,0.80
2022-09-11T13:59:48.262Z,0.52
2022-09-11T14:02:39.164Z,0.65
2022-09-11T14:05:14.715Z,0.60
2022-09-11T14:07:55.990Z,0.50
2022-09-11T14:10:27.920Z,0.60
2022-09-11T14:13:05.282Z,0.75
2022-09-11T14:15:40.308Z,0.60
2022-09-11T14:18:18.980Z,0.70
2022-09-11T14:20:47.959Z,0.70
2022-09-11T14:23:24.297Z,0.50
2022-09-11T14:26:15.963Z,0.50
2022-09-11T14:29:00.661Z,0.70
2022-09-11T14:31:35.504Z,0.70
2022-09-11T14:34:12.363Z,0.60
2022-09-11T14:36:44.151Z,0.70
2022-09-11T14:39:15.872Z,0.80
2022-09-11T14:41:45.372Z,0.70
2022-09-11T14:44:17.516Z,0.60
2022-09-11T14:46:45.870Z,0.90
2022-09-11T14:49:14.375Z,0.50
2022-09-11T14:51:43.904Z,0.38
2022-09-11T14:54:16.474Z,1.00
2022-09-11T14:56:45.180Z,0.95
2022-09-11T14:59:14.074Z,1.55
2022-09-11T15:01:43.687Z,1.17
2022-09-11T15:04:14.189Z,1.20
2022-09-11T15:06:42.618Z,1.70
2022-09-11T15:09:10.784Z,1.70
2022-09-11T15:11:39.672Z,1.30
2022-09-11T15:14:27.836Z,1.10
2022-09-11T15:16:59.548Z,1.20
2022-09-11T15:19:27.988Z,0.90
2022-09-11T15:21:56.719Z,1.17
2022-09-11T15:24:25.512Z,1.00
2022-09-11T15:26:54.977Z,1.30
2022-09-11T15:29:29.406Z,1.20
2022-09-11T15:32:01.975Z,1.67
2022-09-11T15:34:33.289Z,1.13
2022-09-11T15:37:02.253Z,1.00
2022-09-11T15:39:30.754Z,0.98
2022-09-11T15:41:59.259Z,1.10
2022-09-11T15:44:28.728Z,1.13
2022-09-11T15:46:58.959Z,1.10
2022-09-11T15:49:29.507Z,1.15
2022-09-11T15:51:58.074Z,1.00
2022-09-11T15:54:27.068Z,1.20
2022-09-11T15:56:55.964Z,1.20
2022-09-11T15:59:25.004Z,0.95
2022-09-11T16:01:53.385Z,1.17
2022-09-11T16:04:23.087Z,1.20
2022-09-11T16:06:54.399Z,1.20
2022-09-11T16:09:25.834Z,1.38
2022-09-11T16:11:56.032Z,1.10
2022-09-11T16:14:27.161Z,1.10
2022-09-11T16:16:57.148Z,0.85
2022-09-11T16:19:27.878Z,1.05
2022-09-11T16:21:59.534Z,1.10
2022-09-11T16:24:30.349Z,1.00
2022-09-11T16:27:00.735Z,1.05
2022-09-11T16:29:51.211Z,1.08
2022-09-11T16:32:28.454Z,1.10
2022-09-11T16:34:59.460Z,1.10
2022-09-11T16:37:34.038Z,1.23
2022-09-11T16:40:04.354Z,0.70
2022-09-11T16:42:33.186Z,1.17
2022-09-11T16:45:02.696Z,1.20
2022-09-11T16:47:32.434Z,1.10
2022-09-11T16:50:07.336Z,1.10
2022-09-11T16:52:38.602Z,1.10
2022-09-11T16:55:09.625Z,1.00
2022-09-11T16:57:37.961Z,1.10
2022-09-11T17:00:07.683Z,1.17
2022-09-11T17:02:37.473Z,1.10
2022-09-11T17:05:06.841Z,1.30
2022-09-11T17:07:35.451Z,1.30
2022-09-11T17:10:05.648Z,1.10
2022-09-11T17:12:33.862Z,1.10
2022-09-11T17:15:01.972Z,1.23
2022-09-11T17:17:31.332Z,0.95
2022-09-11T17:19:59.425Z,1.15
2022-09-11T17:22:29.728Z,1.25
2022-09-11T17:24:58.124Z,1.30
2022-09-11T17:27:27.943Z,1.40
2022-09-11T17:29:57.186Z,1.50
2022-09-11T17:32:28.582Z,1.48
2022-09-11T17:34:58.595Z,1.50
2022-09-11T17:37:28.395Z,1.27
2022-09-11T17:39:59.182Z,1.20
2022-09-11T17:42:32.389Z,1.70
2022-09-11T17:45:01.820Z,1.20
2022-09-11T17:47:32.871Z,1.27
2022-09-11T17:50:01.715Z,1.38
2022-09-11T17:52:30.015Z,1.20
2022-09-11T17:54:58.223Z,1.30
2022-09-11T17:57:26.884Z,1.25
2022-09-11T17:59:56.698Z,1.42
2022-09-11T18:02:25.274Z,1.50
2022-09-11T18:04:53.679Z,1.20
2022-09-11T18:07:22.132Z,1.30
2022-09-11T18:09:56.228Z,1.30
2022-09-11T18:12:26.087Z,1.50
2022-09-11T18:14:56.187Z,1.30
2022-09-11T18:17:29.183Z,1.42
2022-09-11T18:19:57.408Z,1.40
2022-09-11T18:22:29.756Z,1.40
2022-09-11T18:24:59.878Z,1.50
2022-09-11T18:27:29.754Z,1.55
2022-09-11T18:29:59.938Z,1.35
2022-09-11T18:32:30.075Z,1.40
2022-09-11T18:35:00.112Z,1.70
2022-09-11T18:37:28.539Z,1.58
2022-09-11T18:39:56.775Z,1.40
2022-09-11T18:42:25.236Z,1.55
2022-09-11T18:44:53.494Z,1.45
2022-09-11T18:47:22.146Z,1.60
2022-09-11T18:49:51.837Z,1.50
2022-09-11T18:52:25.460Z,1.60
2022-09-11T18:54:54.454Z,1.52
2022-09-11T18:57:22.643Z,1.67
2022-09-11T18:59:52.331Z,1.50
2022-09-11T19:02:20.619Z,1.60
2022-09-11T19:04:49.061Z,1.40
2022-09-11T19:07:18.829Z,1.63
2022-09-11T19:09:49.092Z,1.60
2022-09-11T19:12:17.339Z,1.75
2022-09-11T19:14:45.606Z,1.77
2022-09-11T19:17:13.890Z,1.45
2022-09-11T19:19:42.155Z,1.70
2022-09-11T19:22:11.234Z,1.77
2022-09-11T19:24:42.576Z,1.70
2022-09-11T19:27:11.405Z,1.77
2022-09-11T19:29:42.795Z,1.60
2022-09-11T19:32:10.979Z,1.70
2022-09-11T19:34:46.453Z,1.80
2022-09-11T19:37:15.605Z,1.45
2022-09-11T19:39:45.166Z,1.50
2022-09-11T19:42:13.417Z,1.70
2022-09-11T19:44:41.457Z,1.80
2022-09-11T19:47:15.150Z,1.50
2022-09-11T19:49:43.531Z,1.75
2022-09-11T19:52:13.088Z,1.83
2022-09-11T19:54:41.623Z,1.88
2022-09-11T19:57:11.192Z,1.70
2022-09-11T19:59:39.248Z,1.80
2022-09-11T20:02:07.701Z,1.75
2022-09-11T20:04:35.801Z,1.83
2022-09-11T20:07:05.502Z,1.80
2022-09-11T20:09:34.188Z,2.00
2022-09-11T20:12:02.438Z,1.92
2022-09-11T20:14:32.241Z,1.85
2022-09-11T20:17:01.129Z,2.00
2022-09-11T20:19:29.556Z,1.85
2022-09-11T20:21:57.687Z,2.30
2022-09-11T20:24:25.762Z,1.90
2022-09-11T20:26:54.700Z,2.00
2022-09-11T20:29:22.808Z,2.08
2022-09-11T20:31:54.135Z,2.10
2022-09-11T20:34:25.714Z,1.98
2022-09-11T20:36:55.129Z,2.22
2022-09-11T20:39:23.425Z,2.35
2022-09-11T20:41:51.585Z,2.15
2022-09-11T20:44:19.804Z,2.00
2022-09-11T20:46:48.445Z,2.30
2022-09-11T20:49:38.173Z,2.28
2022-09-11T20:52:06.688Z,2.20
2022-09-11T20:54:34.737Z,2.60
2022-09-11T20:57:02.899Z,2.20
2022-09-11T20:59:31.187Z,2.75
2022-09-11T21:02:00.532Z,2.25
2022-09-11T21:04:28.829Z,2.65
2022-09-11T21:07:00.500Z,2.45
2022-09-11T21:09:29.295Z,2.30
2022-09-11T21:11:57.364Z,2.80
2022-09-11T21:14:25.615Z,2.72
2022-09-11T21:16:53.982Z,2.70
2022-09-11T21:19:22.038Z,3.03
2022-09-11T21:21:50.184Z,2.83
2022-09-11T21:24:19.600Z,2.97
2022-09-11T21:26:47.933Z,2.70
2022-09-11T21:29:16.080Z,3.10
2022-09-11T21:31:44.142Z,2.83
2022-09-11T21:34:12.336Z,3.25
2022-09-11T21:36:40.484Z,3.08
2022-09-11T21:39:09.204Z,2.75
2022-09-11T21:41:38.733Z,3.15
2022-09-11T21:44:06.855Z,3.00
2022-09-11T21:46:35.017Z,2.78
2022-09-11T21:49:03.442Z,3.10
2022-09-11T21:51:31.636Z,3.83
2022-09-11T21:54:01.787Z,3.20
2022-09-11T21:56:34.527Z,3.40
2022-09-11T21:59:04.046Z,3.22
2022-09-11T22:01:32.835Z,3.33
2022-09-11T22:04:01.940Z,3.25
2022-09-11T22:06:31.050Z,3.33
2022-09-11T22:08:59.631Z,3.45
2022-09-11T22:11:27.719Z,3.20
2022-09-11T22:13:55.956Z,3.53
2022-09-11T22:16:25.769Z,3.92
2022-09-11T22:18:56.006Z,3.67
2022-09-11T22:21:24.148Z,3.92
2022-09-11T22:23:52.434Z,4.05
2022-09-11T22:26:23.646Z,4.18
2022-09-11T22:28:52.858Z,4.47
2022-09-11T22:31:22.530Z,4.30
2022-09-11T22:33:53.763Z,4.50
2022-09-11T22:36:23.942Z,4.38
2022-09-11T22:38:52.054Z,4.18
2022-09-11T22:41:21.259Z,4.38
2022-09-11T22:43:50.151Z,4.90
2022-09-11T22:46:20.575Z,5.05
2022-09-11T22:48:48.997Z,4.63
2022-09-11T22:51:18.412Z,5.05
2022-09-11T22:53:47.026Z,4.80
2022-09-11T22:56:15.789Z,4.85
2022-09-11T22:58:44.058Z,4.38
2022-09-11T23:01:16.759Z,4.78
2022-09-11T23:03:47.897Z,4.70
2022-09-11T23:06:33.330Z,4.68
2022-09-11T23:09:04.308Z,5.07
2022-09-11T23:11:32.377Z,4.68
2022-09-11T23:14:00.436Z,5.13
2022-09-11T23:16:30.333Z,5.28
2022-09-11T23:18:59.843Z,4.68
2022-09-11T23:21:29.216Z,5.00
2022-09-11T23:23:58.651Z,4.47
2022-09-11T23:26:29.675Z,4.93
2022-09-11T23:28:58.202Z,4.70
2022-09-11T23:31:28.892Z,4.75
2022-09-11T23:33:59.276Z,4.28
2022-09-11T23:36:28.522Z,4.85
2022-09-11T23:38:56.988Z,4.25
2022-09-11T23:41:28.367Z,4.40
2022-09-11T23:43:56.978Z,4.55
2022-09-11T23:46:25.160Z,4.25
2022-09-11T23:48:53.251Z,4.68
2022-09-11T23:51:21.363Z,5.13
2022-09-11T23:53:51.693Z,4.85
2022-09-11T23:56:20.967Z,4.47
2022-09-11T23:58:50.915Z,4.82
